sensor_id;sensor_type;location;lat;lon;timestamp;pressure;altitude;pressure_sealevel;temperature;humidity
41945;BME280;63122;52.424;13.458;2022-11-02T00:02:10;101176.06;;;10.75;91.86
41945;BME280;63122;52.424;13.458;2022-11-02T00:04:45;101167.75;;;10.70;91.45
41945;BME280;63122;52.424;13.458;2022-11-02T00:07:16;101172.44;;;10.66;90.98
41945;BME280;63122;52.424;13.458;2022-11-02T00:09:47;101169.13;;;10.64;91.62
41945;BME280;63122;52.424;13.458;2022-11-02T00:12:17;101174.28;;;10.66;91.12
41945;BME280;63122;52.424;13.458;2022-11-02T00:15:29;101171.91;;;10.63;90.98
41945;BME280;63122;52.424;13.458;2022-11-02T00:18:24;101177.19;;;10.53;91.48
41945;BME280;63122;52.424;13.458;2022-11-02T00:21:12;101173.69;;;10.52;90.90
41945;BME280;63122;52.424;13.458;2022-11-02T00:24:43;101179.25;;;10.49;90.50
41945;BME280;63122;52.424;13.458;2022-11-02T00:27:14;101177.47;;;10.50;90.56
41945;BME280;63122;52.424;13.458;2022-11-02T00:29:44;101174.66;;;10.42;90.87
41945;BME280;63122;52.424;13.458;2022-11-02T00:32:16;101168.81;;;10.38;90.85
41945;BME280;63122;52.424;13.458;2022-11-02T01:16:29;101165.13;;;9.90;88.40
41945;BME280;63122;52.424;13.458;2022-11-02T01:19:17;101179.16;;;9.90;87.86
41945;BME280;63122;52.424;13.458;2022-11-02T01:21:53;101180.06;;;9.79;88.33
41945;BME280;63122;52.424;13.458;2022-11-02T01:24:25;101177.84;;;9.75;88.21
41945;BME280;63122;52.424;13.458;2022-11-02T01:26:55;101181.16;;;9.67;88.30
41945;BME280;63122;52.424;13.458;2022-11-02T01:29:27;101180.16;;;9.58;88.25
41945;BME280;63122;52.424;13.458;2022-11-02T01:32:00;101183.59;;;9.59;88.21
41945;BME280;63122;52.424;13.458;2022-11-02T01:34:31;101186.13;;;9.60;88.04
41945;BME280;63122;52.424;13.458;2022-11-02T01:37:41;101177.94;;;9.63;87.22
41945;BME280;63122;52.424;13.458;2022-11-02T01:41:25;101181.44;;;9.43;87.49
41945;BME280;63122;52.424;13.458;2022-11-02T01:45:06;101177.09;;;9.53;87.15
41945;BME280;63122;52.424;13.458;2022-11-02T01:48:33;101171.22;;;9.49;86.90
41945;BME280;63122;52.424;13.458;2022-11-02T01:51:54;101166.78;;;9.40;87.09
41945;BME280;63122;52.424;13.458;2022-11-02T02:04:22;101153.66;;;9.60;84.91
41945;BME280;63122;52.424;13.458;2022-11-02T02:16:36;101156.25;;;9.19;85.98
41945;BME280;63122;52.424;13.458;2022-11-02T02:21:41;101156.00;;;9.22;85.86
41945;BME280;63122;52.424;13.458;2022-11-02T02:29:06;101147.66;;;9.17;85.32
41945;BME280;63122;52.424;13.458;2022-11-02T02:31:54;101148.50;;;9.17;85.09
41945;BME280;63122;52.424;13.458;2022-11-02T02:34:48;101144.31;;;9.15;84.66
41945;BME280;63122;52.424;13.458;2022-11-02T02:37:44;101140.81;;;9.04;84.49
41945;BME280;63122;52.424;13.458;2022-11-02T02:40:36;101141.88;;;9.02;84.75
41945;BME280;63122;52.424;13.458;2022-11-02T02:43:31;101145.38;;;9.02;85.16
41945;BME280;63122;52.424;13.458;2022-11-02T02:46:08;101130.75;;;8.88;85.32
41945;BME280;63122;52.424;13.458;2022-11-02T02:48:45;101134.84;;;9.02;85.34
41945;BME280;63122;52.424;13.458;2022-11-02T02:51:27;101135.47;;;8.95;84.60
41945;BME280;63122;52.424;13.458;2022-11-02T02:54:13;101139.25;;;9.02;84.37
41945;BME280;63122;52.424;13.458;2022-11-02T02:57:29;101138.38;;;8.91;84.29
41945;BME280;63122;52.424;13.458;2022-11-02T03:01:14;101141.66;;;8.84;85.01
41945;BME280;63122;52.424;13.458;2022-11-02T03:04:47;101145.63;;;8.99;83.89
41945;BME280;63122;52.424;13.458;2022-11-02T03:16:05;101142.50;;;8.84;84.23
41945;BME280;63122;52.424;13.458;2022-11-02T03:19:47;101132.47;;;8.57;85.13
41945;BME280;63122;52.424;13.458;2022-11-02T03:27:54;101143.16;;;8.65;84.38
41945;BME280;63122;52.424;13.458;2022-11-02T03:31:30;101138.88;;;8.64;84.42
41945;BME280;63122;52.424;13.458;2022-11-02T03:35:45;101144.19;;;8.53;84.73
41945;BME280;63122;52.424;13.458;2022-11-02T03:39:02;101139.38;;;8.58;84.89
41945;BME280;63122;52.424;13.458;2022-11-02T03:42:30;101135.78;;;8.59;84.62
41945;BME280;63122;52.424;13.458;2022-11-02T03:45:43;101150.53;;;8.50;85.12
41945;BME280;63122;52.424;13.458;2022-11-02T03:48:49;101148.38;;;8.55;84.82
41945;BME280;63122;52.424;13.458;2022-11-02T03:52:23;101143.56;;;8.49;84.84
41945;BME280;63122;52.424;13.458;2022-11-02T03:56:08;101134.19;;;8.68;84.65
41945;BME280;63122;52.424;13.458;2022-11-02T03:58:47;101135.94;;;8.57;84.82
41945;BME280;63122;52.424;13.458;2022-11-02T04:01:46;101143.69;;;8.59;84.89
41945;BME280;63122;52.424;13.458;2022-11-02T04:05:35;101142.16;;;8.56;84.59
41945;BME280;63122;52.424;13.458;2022-11-02T04:12:59;101131.38;;;8.59;84.68
41945;BME280;63122;52.424;13.458;2022-11-02T04:15:59;101139.19;;;8.49;84.51
41945;BME280;63122;52.424;13.458;2022-11-02T04:19:10;101136.34;;;8.41;85.14
41945;BME280;63122;52.424;13.458;2022-11-02T04:22:06;101126.50;;;8.55;84.64
41945;BME280;63122;52.424;13.458;2022-11-02T04:24:59;101138.31;;;8.49;84.65
41945;BME280;63122;52.424;13.458;2022-11-02T04:28:08;101133.72;;;8.41;85.00
41945;BME280;63122;52.424;13.458;2022-11-02T04:31:00;101128.91;;;8.46;84.53
41945;BME280;63122;52.424;13.458;2022-11-02T04:34:13;101133.56;;;8.43;84.76
41945;BME280;63122;52.424;13.458;2022-11-02T04:37:09;101140.84;;;8.50;84.42
41945;BME280;63122;52.424;13.458;2022-11-02T04:40:36;101128.31;;;8.43;84.80
41945;BME280;63122;52.424;13.458;2022-11-02T04:48:09;101139.25;;;8.27;85.54
41945;BME280;63122;52.424;13.458;2022-11-02T04:51:24;101139.69;;;8.32;85.15
41945;BME280;63122;52.424;13.458;2022-11-02T04:54:17;101144.28;;;8.18;86.13
41945;BME280;63122;52.424;13.458;2022-11-02T04:57:43;101139.53;;;8.12;85.85
41945;BME280;63122;52.424;13.458;2022-11-02T05:03:53;101142.47;;;8.19;85.97
41945;BME280;63122;52.424;13.458;2022-11-02T05:06:56;101143.44;;;8.18;85.70
41945;BME280;63122;52.424;13.458;2022-11-02T05:14:18;101144.00;;;8.33;84.65
41945;BME280;63122;52.424;13.458;2022-11-02T05:17:52;101138.13;;;7.97;85.88
41945;BME280;63122;52.424;13.458;2022-11-02T05:20:32;101141.09;;;8.03;86.08
41945;BME280;63122;52.424;13.458;2022-11-02T05:23:50;101151.81;;;8.12;85.61
41945;BME280;63122;52.424;13.458;2022-11-02T05:27:44;101152.75;;;8.22;85.11
41945;BME280;63122;52.424;13.458;2022-11-02T05:43:06;101154.91;;;8.17;84.85
41945;BME280;63122;52.424;13.458;2022-11-02T05:46:13;101147.75;;;8.19;85.24
41945;BME280;63122;52.424;13.458;2022-11-02T05:48:58;101148.84;;;8.16;85.17
41945;BME280;63122;52.424;13.458;2022-11-02T05:52:05;101154.66;;;8.20;85.01
41945;BME280;63122;52.424;13.458;2022-11-02T05:54:47;101151.94;;;8.21;85.03
41945;BME280;63122;52.424;13.458;2022-11-02T05:57:49;101140.66;;;8.31;84.30
41945;BME280;63122;52.424;13.458;2022-11-02T06:00:45;101136.16;;;8.21;84.64
41945;BME280;63122;52.424;13.458;2022-11-02T06:03:49;101138.91;;;8.20;84.63
41945;BME280;63122;52.424;13.458;2022-11-02T06:06:32;101149.41;;;8.20;85.17
41945;BME280;63122;52.424;13.458;2022-11-02T06:09:29;101143.69;;;8.26;85.02
41945;BME280;63122;52.424;13.458;2022-11-02T06:13:03;101143.44;;;8.18;85.25
41945;BME280;63122;52.424;13.458;2022-11-02T06:16:14;101146.00;;;8.41;84.37
41945;BME280;63122;52.424;13.458;2022-11-02T06:19:11;101147.66;;;8.42;84.36
41945;BME280;63122;52.424;13.458;2022-11-02T06:21:54;101150.41;;;8.52;83.69
41945;BME280;63122;52.424;13.458;2022-11-02T06:24:55;101146.72;;;8.54;83.43
41945;BME280;63122;52.424;13.458;2022-11-02T06:27:32;101143.38;;;8.41;83.99
41945;BME280;63122;52.424;13.458;2022-11-02T06:30:45;101149.47;;;8.41;83.93
41945;BME280;63122;52.424;13.458;2022-11-02T06:33:34;101151.16;;;8.42;84.17
41945;BME280;63122;52.424;13.458;2022-11-02T06:36:12;101140.50;;;8.44;83.87
41945;BME280;63122;52.424;13.458;2022-11-02T06:38:42;101145.03;;;8.42;83.86
41945;BME280;63122;52.424;13.458;2022-11-02T06:41:12;101145.19;;;8.40;83.71
41945;BME280;63122;52.424;13.458;2022-11-02T06:43:42;101149.00;;;8.36;83.95
41945;BME280;63122;52.424;13.458;2022-11-02T06:46:14;101155.31;;;8.45;83.72
41945;BME280;63122;52.424;13.458;2022-11-02T06:48:45;101162.03;;;8.38;83.93
41945;BME280;63122;52.424;13.458;2022-11-02T06:51:15;101167.03;;;8.41;83.95
41945;BME280;63122;52.424;13.458;2022-11-02T06:53:45;101164.78;;;8.36;84.13
41945;BME280;63122;52.424;13.458;2022-11-02T06:56:15;101166.22;;;8.40;84.18
41945;BME280;63122;52.424;13.458;2022-11-02T06:58:45;101174.22;;;8.39;84.04
41945;BME280;63122;52.424;13.458;2022-11-02T07:01:18;101173.38;;;8.49;83.79
41945;BME280;63122;52.424;13.458;2022-11-02T07:03:48;101169.28;;;8.45;83.91
41945;BME280;63122;52.424;13.458;2022-11-02T07:06:18;101173.84;;;8.43;84.43
41945;BME280;63122;52.424;13.458;2022-11-02T07:08:47;101173.50;;;8.36;84.79
41945;BME280;63122;52.424;13.458;2022-11-02T07:11:18;101177.59;;;8.29;85.02
41945;BME280;63122;52.424;13.458;2022-11-02T07:13:47;101181.75;;;8.43;85.06
41945;BME280;63122;52.424;13.458;2022-11-02T07:16:20;101175.84;;;8.51;84.82
41945;BME280;63122;52.424;13.458;2022-11-02T07:18:51;101167.84;;;8.53;84.75
41945;BME280;63122;52.424;13.458;2022-11-02T07:21:21;101182.16;;;8.60;84.92
41945;BME280;63122;52.424;13.458;2022-11-02T07:23:51;101176.66;;;8.63;85.13
41945;BME280;63122;52.424;13.458;2022-11-02T07:26:21;101178.38;;;8.85;84.01
41945;BME280;63122;52.424;13.458;2022-11-02T07:28:52;101172.25;;;8.85;83.92
41945;BME280;63122;52.424;13.458;2022-11-02T07:31:28;101173.91;;;8.86;84.02
41945;BME280;63122;52.424;13.458;2022-11-02T07:33:58;101180.09;;;8.96;83.34
41945;BME280;63122;52.424;13.458;2022-11-02T07:36:29;101177.06;;;9.01;82.83
41945;BME280;63122;52.424;13.458;2022-11-02T07:38:58;101178.34;;;9.06;83.13
41945;BME280;63122;52.424;13.458;2022-11-02T07:41:28;101185.03;;;9.11;83.14
41945;BME280;63122;52.424;13.458;2022-11-02T07:43:58;101171.66;;;9.24;82.58
41945;BME280;63122;52.424;13.458;2022-11-02T07:46:31;101182.69;;;9.39;81.20
41945;BME280;63122;52.424;13.458;2022-11-02T07:49:01;101186.88;;;9.41;81.61
41945;BME280;63122;52.424;13.458;2022-11-02T07:51:31;101195.03;;;9.38;81.64
41945;BME280;63122;52.424;13.458;2022-11-02T07:54:01;101195.06;;;9.48;81.73
41945;BME280;63122;52.424;13.458;2022-11-02T07:56:31;101184.72;;;9.56;81.45
41945;BME280;63122;52.424;13.458;2022-11-02T07:59:01;101196.00;;;9.68;80.90
41945;BME280;63122;52.424;13.458;2022-11-02T08:01:34;101190.56;;;9.70;80.41
41945;BME280;63122;52.424;13.458;2022-11-02T08:04:04;101188.91;;;9.69;80.78
41945;BME280;63122;52.424;13.458;2022-11-02T08:06:34;101186.75;;;9.84;80.74
41945;BME280;63122;52.424;13.458;2022-11-02T08:09:04;101194.69;;;9.93;80.16
41945;BME280;63122;52.424;13.458;2022-11-02T08:11:56;101192.06;;;10.03;80.24
41945;BME280;63122;52.424;13.458;2022-11-02T08:14:26;101186.41;;;10.08;79.70
41945;BME280;63122;52.424;13.458;2022-11-02T08:16:58;101180.13;;;9.99;79.63
41945;BME280;63122;52.424;13.458;2022-11-02T08:19:28;101184.88;;;10.05;79.92
41945;BME280;63122;52.424;13.458;2022-11-02T08:21:59;101185.69;;;9.96;80.08
41945;BME280;63122;52.424;13.458;2022-11-02T08:24:29;101193.88;;;10.03;80.52
41945;BME280;63122;52.424;13.458;2022-11-02T08:26:59;101197.47;;;10.02;79.87
41945;BME280;63122;52.424;13.458;2022-11-02T08:29:30;101193.03;;;10.02;79.55
41945;BME280;63122;52.424;13.458;2022-11-02T08:32:04;101192.91;;;10.04;80.21
41945;BME280;63122;52.424;13.458;2022-11-02T08:34:34;101207.66;;;10.16;80.58
41945;BME280;63122;52.424;13.458;2022-11-02T08:37:06;101201.56;;;10.26;79.78
41945;BME280;63122;52.424;13.458;2022-11-02T08:39:36;101195.59;;;10.23;79.57
41945;BME280;63122;52.424;13.458;2022-11-02T08:42:06;101196.84;;;10.29;79.61
41945;BME280;63122;52.424;13.458;2022-11-02T08:44:36;101196.69;;;10.31;79.52
41945;BME280;63122;52.424;13.458;2022-11-02T08:47:11;101194.22;;;10.29;79.47
41945;BME280;63122;52.424;13.458;2022-11-02T08:49:42;101199.88;;;10.25;79.40
41945;BME280;63122;52.424;13.458;2022-11-02T08:52:12;101200.72;;;10.25;79.81
41945;BME280;63122;52.424;13.458;2022-11-02T08:54:43;101195.47;;;10.25;79.24
41945;BME280;63122;52.424;13.458;2022-11-02T08:57:12;101201.28;;;10.29;79.45
41945;BME280;63122;52.424;13.458;2022-11-02T08:59:43;101196.44;;;10.24;79.55
41945;BME280;63122;52.424;13.458;2022-11-02T09:02:15;101199.88;;;10.25;79.53
41945;BME280;63122;52.424;13.458;2022-11-02T09:04:45;101202.41;;;10.36;79.90
41945;BME280;63122;52.424;13.458;2022-11-02T09:07:15;101199.25;;;10.42;79.58
41945;BME280;63122;52.424;13.458;2022-11-02T09:09:45;101201.22;;;10.50;79.07
41945;BME280;63122;52.424;13.458;2022-11-02T09:12:15;101197.44;;;10.52;79.89
41945;BME280;63122;52.424;13.458;2022-11-02T09:14:45;101201.34;;;10.68;78.56
41945;BME280;63122;52.424;13.458;2022-11-02T09:17:17;101193.28;;;10.89;78.52
41945;BME280;63122;52.424;13.458;2022-11-02T09:19:48;101197.00;;;11.06;77.51
41945;BME280;63122;52.424;13.458;2022-11-02T09:22:18;101197.84;;;10.97;77.75
41945;BME280;63122;52.424;13.458;2022-11-02T09:24:48;101197.97;;;10.95;77.97
41945;BME280;63122;52.424;13.458;2022-11-02T09:27:17;101198.13;;;11.04;77.47
41945;BME280;63122;52.424;13.458;2022-11-02T09:29:48;101200.13;;;11.30;77.21
41945;BME280;63122;52.424;13.458;2022-11-02T09:32:20;101201.63;;;11.42;76.79
41945;BME280;63122;52.424;13.458;2022-11-02T09:34:50;101198.66;;;11.65;75.83
41945;BME280;63122;52.424;13.458;2022-11-02T09:37:20;101205.44;;;11.67;74.67
41945;BME280;63122;52.424;13.458;2022-11-02T09:39:51;101202.38;;;11.72;74.10
41945;BME280;63122;52.424;13.458;2022-11-02T09:42:23;101211.50;;;11.88;73.96
41945;BME280;63122;52.424;13.458;2022-11-02T09:44:57;101201.41;;;12.01;72.19
41945;BME280;63122;52.424;13.458;2022-11-02T09:47:37;101211.84;;;12.03;72.24
41945;BME280;63122;52.424;13.458;2022-11-02T09:50:38;101210.34;;;12.18;71.06
41945;BME280;63122;52.424;13.458;2022-11-02T09:53:16;101212.88;;;12.38;70.52
41945;BME280;63122;52.424;13.458;2022-11-02T09:55:51;101209.31;;;12.47;70.77
41945;BME280;63122;52.424;13.458;2022-11-02T09:58:27;101224.16;;;12.58;69.73
41945;BME280;63122;52.424;13.458;2022-11-02T10:01:07;101215.78;;;12.63;69.07
41945;BME280;63122;52.424;13.458;2022-11-02T10:03:54;101212.66;;;12.67;68.17
41945;BME280;63122;52.424;13.458;2022-11-02T10:06:26;101214.84;;;12.72;67.40
41945;BME280;63122;52.424;13.458;2022-11-02T10:09:01;101214.59;;;12.84;67.80
41945;BME280;63122;52.424;13.458;2022-11-02T10:11:44;101223.72;;;13.07;66.85
41945;BME280;63122;52.424;13.458;2022-11-02T10:14:19;101231.47;;;13.01;66.28
41945;BME280;63122;52.424;13.458;2022-11-02T10:16:54;101216.88;;;13.23;65.73
41945;BME280;63122;52.424;13.458;2022-11-02T10:19:29;101221.19;;;13.24;65.55
41945;BME280;63122;52.424;13.458;2022-11-02T10:22:02;101208.16;;;13.57;64.73
41945;BME280;63122;52.424;13.458;2022-11-02T10:24:35;101213.19;;;13.42;64.51
41945;BME280;63122;52.424;13.458;2022-11-02T10:27:14;101226.16;;;13.80;62.69
41945;BME280;63122;52.424;13.458;2022-11-02T10:29:51;101214.13;;;13.59;62.87
41945;BME280;63122;52.424;13.458;2022-11-02T10:32:24;101226.63;;;13.41;63.22
41945;BME280;63122;52.424;13.458;2022-11-02T10:34:56;101234.34;;;13.60;62.90
41945;BME280;63122;52.424;13.458;2022-11-02T10:38:06;101222.53;;;13.81;62.11
41945;BME280;63122;52.424;13.458;2022-11-02T10:40:52;101225.81;;;13.75;61.93
41945;BME280;63122;52.424;13.458;2022-11-02T10:43:37;101232.69;;;13.59;61.51
41945;BME280;63122;52.424;13.458;2022-11-02T10:46:31;101227.41;;;13.67;61.92
41945;BME280;63122;52.424;13.458;2022-11-02T10:49:09;101221.09;;;13.95;61.41
41945;BME280;63122;52.424;13.458;2022-11-02T10:51:44;101219.78;;;14.07;60.83
41945;BME280;63122;52.424;13.458;2022-11-02T10:54:15;101222.09;;;14.02;60.79
41945;BME280;63122;52.424;13.458;2022-11-02T10:56:55;101217.13;;;14.07;59.39
41945;BME280;63122;52.424;13.458;2022-11-02T10:59:25;101245.03;;;14.20;58.75
41945;BME280;63122;52.424;13.458;2022-11-02T11:02:07;101218.56;;;14.45;58.45
41945;BME280;63122;52.424;13.458;2022-11-02T11:04:40;101225.06;;;14.59;57.80
41945;BME280;63122;52.424;13.458;2022-11-02T11:07:17;101227.88;;;14.57;57.25
41945;BME280;63122;52.424;13.458;2022-11-02T11:09:53;101226.19;;;14.64;57.20
41945;BME280;63122;52.424;13.458;2022-11-02T11:12:29;101216.09;;;14.68;56.50
41945;BME280;63122;52.424;13.458;2022-11-02T11:15:01;101224.06;;;14.60;56.63
41945;BME280;63122;52.424;13.458;2022-11-02T11:17:52;101246.69;;;14.80;55.94
41945;BME280;63122;52.424;13.458;2022-11-02T11:20:43;101246.19;;;14.77;55.93
41945;BME280;63122;52.424;13.458;2022-11-02T11:23:23;101246.84;;;14.79;55.18
41945;BME280;63122;52.424;13.458;2022-11-02T11:25:57;101239.03;;;14.86;55.40
41945;BME280;63122;52.424;13.458;2022-11-02T11:28:29;101236.69;;;14.74;56.05
41945;BME280;63122;52.424;13.458;2022-11-02T11:31:06;101249.75;;;14.59;55.66
41945;BME280;63122;52.424;13.458;2022-11-02T11:33:42;101257.00;;;14.32;56.94
41945;BME280;63122;52.424;13.458;2022-11-02T11:36:22;101266.97;;;14.30;56.99
41945;BME280;63122;52.424;13.458;2022-11-02T11:38:58;101251.69;;;14.24;57.49
41945;BME280;63122;52.424;13.458;2022-11-02T11:41:30;101245.06;;;14.28;57.30
41945;BME280;63122;52.424;13.458;2022-11-02T11:44:02;101245.66;;;14.05;57.43
41945;BME280;63122;52.424;13.458;2022-11-02T11:46:39;101256.81;;;14.17;57.26
41945;BME280;63122;52.424;13.458;2022-11-02T11:49:22;101248.34;;;14.14;57.22
41945;BME280;63122;52.424;13.458;2022-11-02T11:52:17;101245.16;;;14.02;57.00
41945;BME280;63122;52.424;13.458;2022-11-02T11:55:00;101252.91;;;13.95;57.54
41945;BME280;63122;52.424;13.458;2022-11-02T11:57:32;101222.63;;;14.06;57.26
41945;BME280;63122;52.424;13.458;2022-11-02T12:00:25;101253.00;;;14.20;57.22
41945;BME280;63122;52.424;13.458;2022-11-02T12:03:02;101240.19;;;13.99;57.90
41945;BME280;63122;52.424;13.458;2022-11-02T12:05:41;101256.03;;;13.90;58.20
41945;BME280;63122;52.424;13.458;2022-11-02T12:08:25;101238.66;;;13.96;57.48
41945;BME280;63122;52.424;13.458;2022-11-02T12:11:14;101237.16;;;13.93;57.32
41945;BME280;63122;52.424;13.458;2022-11-02T12:14:02;101239.34;;;14.06;56.65
41945;BME280;63122;52.424;13.458;2022-11-02T12:16:54;101237.06;;;14.11;56.39
41945;BME280;63122;52.424;13.458;2022-11-02T12:19:49;101234.16;;;13.88;56.72
41945;BME280;63122;52.424;13.458;2022-11-02T12:22:30;101239.66;;;13.95;55.60
41945;BME280;63122;52.424;13.458;2022-11-02T12:25:15;101260.19;;;13.93;55.90
41945;BME280;63122;52.424;13.458;2022-11-02T12:27:56;101242.63;;;13.92;55.92
41945;BME280;63122;52.424;13.458;2022-11-02T12:30:36;101238.81;;;13.94;56.38
41945;BME280;63122;52.424;13.458;2022-11-02T12:33:22;101247.59;;;13.95;56.80
41945;BME280;63122;52.424;13.458;2022-11-02T12:36:11;101237.47;;;13.90;56.64
41945;BME280;63122;52.424;13.458;2022-11-02T12:41:41;101259.44;;;13.74;57.24
41945;BME280;63122;52.424;13.458;2022-11-02T12:44:28;101247.72;;;13.85;56.73
41945;BME280;63122;52.424;13.458;2022-11-02T12:47:10;101244.56;;;13.81;56.40
41945;BME280;63122;52.424;13.458;2022-11-02T12:49:47;101249.81;;;13.73;56.97
41945;BME280;63122;52.424;13.458;2022-11-02T12:52:28;101243.75;;;13.89;56.29
41945;BME280;63122;52.424;13.458;2022-11-02T12:55:02;101248.56;;;13.86;54.96
41945;BME280;63122;52.424;13.458;2022-11-02T12:57:42;101251.84;;;13.79;53.12
41945;BME280;63122;52.424;13.458;2022-11-02T13:00:20;101250.50;;;13.75;51.93
41945;BME280;63122;52.424;13.458;2022-11-02T13:03:06;101252.16;;;13.76;51.18
41945;BME280;63122;52.424;13.458;2022-11-02T13:05:45;101269.16;;;13.92;50.10
41945;BME280;63122;52.424;13.458;2022-11-02T13:08:22;101245.19;;;14.10;49.29
41945;BME280;63122;52.424;13.458;2022-11-02T13:10:57;101254.34;;;14.32;48.97
41945;BME280;63122;52.424;13.458;2022-11-02T13:13:32;101243.13;;;14.38;48.36
41945;BME280;63122;52.424;13.458;2022-11-02T13:16:08;101236.81;;;14.39;46.90
41945;BME280;63122;52.424;13.458;2022-11-02T13:18:43;101246.78;;;14.54;45.93
41945;BME280;63122;52.424;13.458;2022-11-02T13:21:26;101252.53;;;14.33;46.85
41945;BME280;63122;52.424;13.458;2022-11-02T13:23:59;101255.88;;;14.43;46.98
41945;BME280;63122;52.424;13.458;2022-11-02T13:26:32;101256.19;;;14.40;46.59
41945;BME280;63122;52.424;13.458;2022-11-02T13:29:08;101242.13;;;14.64;46.99
41945;BME280;63122;52.424;13.458;2022-11-02T13:31:45;101254.97;;;14.77;46.29
41945;BME280;63122;52.424;13.458;2022-11-02T13:34:20;101247.34;;;14.91;45.91
41945;BME280;63122;52.424;13.458;2022-11-02T13:36:55;101248.63;;;15.36;44.76
41945;BME280;63122;52.424;13.458;2022-11-02T13:39:31;101256.78;;;14.77;45.40
41945;BME280;63122;52.424;13.458;2022-11-02T13:42:16;101253.31;;;14.85;45.56
41945;BME280;63122;52.424;13.458;2022-11-02T13:48:30;101252.63;;;14.99;45.47
41945;BME280;63122;52.424;13.458;2022-11-02T13:51:12;101247.16;;;15.09;45.83
41945;BME280;63122;52.424;13.458;2022-11-02T13:53:51;101245.66;;;14.98;45.30
41945;BME280;63122;52.424;13.458;2022-11-02T13:56:24;101245.84;;;15.05;45.46
41945;BME280;63122;52.424;13.458;2022-11-02T13:58:58;101250.81;;;15.16;45.31
41945;BME280;63122;52.424;13.458;2022-11-02T14:01:32;101247.00;;;15.10;44.75
41945;BME280;63122;52.424;13.458;2022-11-02T14:04:08;101245.50;;;15.08;44.86
41945;BME280;63122;52.424;13.458;2022-11-02T14:06:46;101248.66;;;14.87;45.11
41945;BME280;63122;52.424;13.458;2022-11-02T14:09:29;101245.19;;;15.03;44.88
41945;BME280;63122;52.424;13.458;2022-11-02T14:12:25;101242.84;;;14.83;45.35
41945;BME280;63122;52.424;13.458;2022-11-02T14:18:25;101253.47;;;14.91;46.11
41945;BME280;63122;52.424;13.458;2022-11-02T14:27:28;101288.16;;;14.73;46.29
41945;BME280;63122;52.424;13.458;2022-11-02T14:29:59;101261.78;;;14.80;46.60
41945;BME280;63122;52.424;13.458;2022-11-02T14:35:43;101266.09;;;14.81;46.58
41945;BME280;63122;52.424;13.458;2022-11-02T14:38:39;101273.38;;;14.87;45.99
41945;BME280;63122;52.424;13.458;2022-11-02T14:44:24;101272.19;;;14.65;45.98
41945;BME280;63122;52.424;13.458;2022-11-02T14:47:15;101293.22;;;14.42;46.56
41945;BME280;63122;52.424;13.458;2022-11-02T14:49:48;101288.91;;;14.40;47.01
41945;BME280;63122;52.424;13.458;2022-11-02T14:52:26;101300.97;;;14.35;46.91
41945;BME280;63122;52.424;13.458;2022-11-02T14:55:03;101298.47;;;14.33;47.62
41945;BME280;63122;52.424;13.458;2022-11-02T14:57:37;101297.47;;;14.26;47.27
41945;BME280;63122;52.424;13.458;2022-11-02T15:00:17;101308.09;;;14.26;47.65
41945;BME280;63122;52.424;13.458;2022-11-02T15:02:48;101303.75;;;14.17;48.47
41945;BME280;63122;52.424;13.458;2022-11-02T15:05:22;101308.88;;;14.18;48.02
41945;BME280;63122;52.424;13.458;2022-11-02T15:07:56;101314.69;;;14.14;47.68
41945;BME280;63122;52.424;13.458;2022-11-02T15:10:40;101314.63;;;14.05;46.82
41945;BME280;63122;52.424;13.458;2022-11-02T15:13:34;101325.13;;;14.15;47.14
41945;BME280;63122;52.424;13.458;2022-11-02T15:16:23;101325.72;;;14.01;47.30
41945;BME280;63122;52.424;13.458;2022-11-02T15:18:53;101316.53;;;13.87;47.39
41945;BME280;63122;52.424;13.458;2022-11-02T15:21:44;101320.88;;;13.96;46.93
41945;BME280;63122;52.424;13.458;2022-11-02T15:24:18;101329.13;;;13.85;47.30
41945;BME280;63122;52.424;13.458;2022-11-02T15:26:58;101326.75;;;13.81;47.28
41945;BME280;63122;52.424;13.458;2022-11-02T15:29:35;101324.19;;;13.90;46.63
41945;BME280;63122;52.424;13.458;2022-11-02T15:32:14;101325.28;;;13.79;47.04
41945;BME280;63122;52.424;13.458;2022-11-02T15:34:50;101332.88;;;13.74;47.12
41945;BME280;63122;52.424;13.458;2022-11-02T15:37:23;101339.03;;;13.56;47.65
41945;BME280;63122;52.424;13.458;2022-11-02T15:40:00;101342.72;;;13.63;47.38
41945;BME280;63122;52.424;13.458;2022-11-02T15:42:39;101334.41;;;13.58;47.45
41945;BME280;63122;52.424;13.458;2022-11-02T15:45:46;101353.81;;;13.41;47.69
41945;BME280;63122;52.424;13.458;2022-11-02T15:48:36;101362.97;;;13.46;47.25
41945;BME280;63122;52.424;13.458;2022-11-02T15:51:19;101361.22;;;13.37;47.44
41945;BME280;63122;52.424;13.458;2022-11-02T15:54:27;101358.03;;;13.33;47.72
41945;BME280;63122;52.424;13.458;2022-11-02T15:57:17;101355.63;;;13.40;47.69
41945;BME280;63122;52.424;13.458;2022-11-02T16:04:18;101365.19;;;13.15;48.14
41945;BME280;63122;52.424;13.458;2022-11-02T16:06:49;101358.44;;;13.02;48.51
41945;BME280;63122;52.424;13.458;2022-11-02T16:09:33;101361.16;;;13.10;48.72
41945;BME280;63122;52.424;13.458;2022-11-02T16:12:11;101370.91;;;12.92;48.99
41945;BME280;63122;52.424;13.458;2022-11-02T16:14:51;101370.38;;;12.88;49.19
41945;BME280;63122;52.424;13.458;2022-11-02T16:17:28;101369.00;;;12.84;49.43
41945;BME280;63122;52.424;13.458;2022-11-02T16:20:16;101369.16;;;12.82;49.55
41945;BME280;63122;52.424;13.458;2022-11-02T16:22:49;101366.13;;;12.77;50.08
41945;BME280;63122;52.424;13.458;2022-11-02T16:25:28;101372.78;;;12.81;49.66
41945;BME280;63122;52.424;13.458;2022-11-02T16:28:16;101376.09;;;12.84;49.37